Time;durP1;ratioP1;P1;durP2;ratioP2;P2;SDS_P1;SDS_P2;PMS_P1;PMS_P2;Temp;Humidity;BMP_temperature;BMP_pressure;BME280_temperature;BME280_humidity;BME280_pressure;Samples;Min_cycle;Max_cycle;Signal;HPM_P1;HPM_P2
2023/08/20 00:02:01;;;;;;;9.15;7.35;;;;;;;-145.68;69.82;72914.19;10493220;28;20183;-75
2023/08/20 00:07:02;;;;;;;12.20;7.53;;;;;;;-145.68;69.08;72902.19;10473601;28;20206;-75
2023/08/20 00:12:05;;;;;;;9.52;6.93;;;;;;;-145.68;65.91;72852.25;10492554;28;20187;-75
2023/08/20 00:17:05;;;;;;;12.68;7.55;;;;;;;-145.68;64.65;72836.25;10491022;28;20227;-75
2023/08/20 00:22:06;;;;;;;9.50;7.70;;;;;;;-145.68;65.48;72868.22;10491922;28;20195;-74
2023/08/20 00:27:06;;;;;;;10.73;7.80;;;;;;;-145.68;66.33;72874.22;10490561;28;20219;-75
2023/08/20 00:32:07;;;;;;;12.05;7.53;;;;;;;-145.68;65.44;72850.25;10492130;28;20183;-73
2023/08/20 00:37:08;;;;;;;9.82;7.20;;;;;;;-145.68;65.27;72856.22;10480293;28;20617;-75
2023/08/20 00:42:08;;;;;;;10.00;7.13;;;;;;;-145.68;65.00;72852.25;10473683;28;20187;-75
2023/08/20 00:47:08;;;;;;;11.52;6.90;;;;;;;-145.68;64.35;72840.25;10489624;28;20231;-74
2023/08/20 00:52:11;;;;;;;8.27;6.90;;;;;;;-145.68;64.21;72848.25;10491102;28;20176;-74
2023/08/20 00:57:14;;;;;;;7.57;6.40;;;;;;;-145.68;63.34;72830.25;10471443;28;20732;-75
2023/08/20 01:02:17;;;;;;;10.20;7.28;;;;;;;-145.68;63.07;72822.25;10471833;28;20185;-75
2023/08/20 01:07:26;;;;;;;9.18;6.60;;;;;;;-145.68;62.60;72816.25;10489058;28;20196;-75
2023/08/20 01:12:26;;;;;;;8.60;6.70;;;;;;;-145.68;61.76;72796.28;10490746;28;20199;-73
2023/08/20 01:17:27;;;;;;;9.07;7.20;;;;;;;-145.68;62.27;72812.28;10489464;28;20207;-75
2023/08/20 01:22:50;;;;;;;9.73;6.30;;;;;;;-145.68;62.22;72818.25;10473169;28;20645;-74
2023/08/20 01:28:15;;;;;;;8.93;7.35;;;;;;;-145.68;63.49;72852.25;10471826;28;20195;-74
2023/08/20 01:33:16;;;;;;;13.20;7.47;;;;;;;-145.68;64.09;72856.22;10456441;28;20183;-74
2023/08/20 01:38:16;;;;;;;7.45;6.75;;;;;;;-145.68;64.16;72848.25;10470324;28;20287;-74
2023/08/20 01:43:17;;;;;;;9.85;6.97;;;;;;;-145.68;63.73;72848.25;10489190;28;20194;-74
2023/08/20 01:48:17;;;;;;;11.65;7.38;;;;;;;-145.68;65.30;72890.22;10471020;28;20242;-74
2023/08/20 01:53:17;;;;;;;9.80;6.70;;;;;;;-145.68;64.75;72872.22;10471873;28;20240;-74
2023/08/20 01:58:18;;;;;;;7.38;6.65;;;;;;;-145.68;64.73;72878.22;10489940;28;20222;-75
2023/08/20 02:03:18;;;;;;;10.57;7.40;;;;;;;-145.68;65.51;72880.22;10471189;28;20652;-74
2023/08/20 02:08:19;;;;;;;9.10;6.93;;;;;;;-145.68;65.02;72878.22;10471612;28;20187;-74
2023/08/20 02:13:19;;;;;;;9.93;6.32;;;;;;;-145.68;65.40;72882.22;10488060;28;20202;-75
2023/08/20 02:18:19;;;;;;;11.32;6.20;;;;;;;-145.68;65.05;72864.22;10477027;28;20225;-75
2023/08/20 02:23:20;;;;;;;11.50;6.80;;;;;;;-145.68;64.57;72864.22;10495120;28;20200;-74
2023/08/20 02:28:20;;;;;;;7.22;6.50;;;;;;;-145.68;64.77;72868.22;10477644;28;20675;-75
2023/08/20 02:33:21;;;;;;;8.43;6.68;;;;;;;-145.68;65.41;72886.22;10475328;28;20225;-75
2023/08/20 02:38:21;;;;;;;7.85;6.55;;;;;;;-145.68;65.65;72878.22;10494704;28;20219;-75
2023/08/20 02:43:21;;;;;;;11.95;7.13;;;;;;;-145.68;66.83;72890.22;10476806;28;20640;-75
2023/08/20 02:48:26;;;;;;;7.47;6.72;;;;;;;-145.68;67.93;72902.19;10492090;28;20226;-75
2023/08/20 02:53:28;;;;;;;10.57;7.30;;;;;;;-145.68;69.66;72928.19;10494360;28;20198;-75
2023/08/20 02:58:29;;;;;;;9.07;7.43;;;;;;;-145.68;69.42;72914.19;10477562;28;20223;-76
2023/08/20 03:03:29;;;;;;;7.45;6.70;;;;;;;-145.68;69.94;72930.19;10491264;28;20195;-75
2023/08/20 03:08:29;;;;;;;7.18;6.47;;;;;;;-145.68;69.74;72916.19;10471555;28;20229;-76
2023/08/20 03:13:30;;;;;;;7.05;6.40;;;;;;;-145.68;71.10;72928.19;10495266;28;20194;-75
2023/08/20 03:18:30;;;;;;;13.15;7.22;;;;;;;-145.68;71.59;72934.19;10529496;28;20575;-74
2023/08/20 03:23:30;;;;;;;10.45;6.60;;;;;;;-145.68;73.43;72948.16;10511560;28;20188;-75
2023/08/20 03:28:31;;;;;;;9.45;7.57;;;;;;;-145.68;75.44;72964.16;10486663;28;20206;-75
2023/08/20 03:33:32;;;;;;;9.75;7.18;;;;;;;-145.68;75.86;72960.16;10486335;28;20670;-75
2023/08/20 03:38:33;;;;;;;11.27;7.60;;;;;;;-145.68;79.66;73004.13;10486496;28;20221;-75
2023/08/20 03:43:33;;;;;;;11.20;7.75;;;;;;;-145.68;84.53;72952.16;10485651;28;20238;-76
2023/08/20 03:48:34;;;;;;;11.68;7.57;;;;;;;-145.68;87.05;73004.13;10468160;28;20258;-75
2023/08/20 03:53:34;;;;;;;8.73;7.82;;;;;;;-145.68;93.62;73054.09;10466977;28;20550;-75
2023/08/20 03:58:34;;;;;;;10.20;8.30;;;;;;;-145.68;99.08;73096.06;10467406;28;20223;-75
2023/08/20 04:03:36;;;;;;;10.75;8.68;;;;;;;-145.68;100.00;73048.09;10490536;28;20191;-75
2023/08/20 04:08:36;;;;;;;13.20;8.35;;;;;;;-145.68;100.00;73052.09;10472986;28;20187;-75
2023/08/20 04:13:37;;;;;;;13.77;8.32;;;;;;;-145.68;100.00;73064.09;10492367;28;20198;-75
2023/08/20 04:18:37;;;;;;;13.40;9.02;;;;;;;-145.68;100.00;73050.09;10476992;28;20212;-76
2023/08/20 04:23:38;;;;;;;11.43;7.95;;;;;;;-145.68;100.00;73038.09;10433123;28;20559;-75
2023/08/20 04:28:38;;;;;;;13.88;8.80;;;;;;;-145.68;100.00;73036.09;10461076;28;20191;-76
2023/08/20 04:33:39;;;;;;;32.53;9.18;;;;;;;-145.68;100.00;73036.09;10483178;28;20214;-76
2023/08/20 04:38:40;;;;;;;14.77;8.35;;;;;;;-145.68;100.00;73044.09;10432233;28;20215;-76
2023/08/20 04:43:41;;;;;;;12.88;8.65;;;;;;;-145.68;100.00;73014.13;10448975;28;20549;-75
2023/08/20 04:48:42;;;;;;;13.10;7.80;;;;;;;-145.68;100.00;73006.13;10436980;28;20238;-75
2023/08/20 04:53:42;;;;;;;9.95;8.35;;;;;;;-145.68;100.00;73010.13;10432138;28;20192;-75
2023/08/20 04:58:43;;;;;;;11.50;8.07;;;;;;;-145.68;100.00;72988.13;10431303;28;20215;-75
2023/08/20 05:03:44;;;;;;;15.52;9.13;;;;;;;-145.68;100.00;73018.13;10432095;28;20218;-75
2023/08/20 05:08:44;;;;;;;15.98;8.40;;;;;;;-145.68;100.00;73008.13;10457412;28;20199;-75
2023/08/20 05:13:45;;;;;;;11.05;8.80;;;;;;;-145.68;100.00;72992.13;10491127;28;20186;-74
2023/08/20 05:18:45;;;;;;;18.70;9.30;;;;;;;-145.68;100.00;72988.13;10466020;28;20557;-74
2023/08/20 05:23:46;;;;;;;14.18;8.55;;;;;;;-145.68;100.00;72996.13;10449377;28;20181;-74
2023/08/20 05:28:46;;;;;;;17.60;9.30;;;;;;;-145.68;100.00;73024.13;10449523;28;20191;-74
2023/08/20 05:33:47;;;;;;;14.95;9.20;;;;;;;-145.68;100.00;73016.13;10431453;28;20726;-74
2023/08/20 05:38:48;;;;;;;12.32;8.65;;;;;;;-145.68;100.00;73004.13;10431002;28;20219;-74
2023/08/20 05:43:48;;;;;;;14.13;8.98;;;;;;;-145.68;100.00;73008.13;10414699;28;20536;-74
2023/08/20 05:48:49;;;;;;;12.45;9.73;;;;;;;-145.68;100.00;72992.13;10455576;28;20231;-74
2023/08/20 05:53:49;;;;;;;14.00;10.35;;;;;;;-145.68;100.00;73000.13;10478670;28;20183;-75
2023/08/20 05:58:50;;;;;;;15.20;9.40;;;;;;;-145.68;100.00;72990.13;10478303;28;20789;-74
2023/08/20 06:03:50;;;;;;;14.63;10.73;;;;;;;-145.68;100.00;73032.09;10498274;28;20194;-75
2023/08/20 06:08:51;;;;;;;15.93;10.50;;;;;;;-145.68;100.00;73022.13;10496058;28;20187;-75
2023/08/20 06:13:51;;;;;;;13.02;10.90;;;;;;;-145.68;100.00;73026.09;10495037;28;20647;-75
2023/08/20 06:18:51;;;;;;;12.25;9.82;;;;;;;-145.68;100.00;73012.13;10468503;28;20254;-74
2023/08/20 06:23:52;;;;;;;14.68;10.85;;;;;;;-145.68;100.00;73012.13;10496585;28;20183;-75
2023/08/20 06:28:53;;;;;;;17.20;10.07;;;;;;;-145.68;100.00;73018.13;10488839;28;20195;-75
2023/08/20 06:33:53;;;;;;;14.73;9.57;;;;;;;-145.68;100.00;73004.13;10487906;28;20673;-75
2023/08/20 06:38:54;;;;;;;11.13;9.90;;;;;;;-145.68;100.00;72988.13;10461743;28;20219;-75
2023/08/20 06:43:54;;;;;;;16.20;10.00;;;;;;;-145.68;100.00;72942.16;10496139;28;20585;-74
2023/08/20 06:48:54;;;;;;;10.98;8.57;;;;;;;-145.68;100.00;72958.16;10495588;28;20226;-74
2023/08/20 06:53:56;;;;;;;13.18;9.07;;;;;;;-145.68;100.00;72940.16;10494117;28;20202;-74
2023/08/20 06:58:56;;;;;;;13.43;9.45;;;;;;;-145.68;96.69;72926.19;10495583;28;20244;-74
2023/08/20 07:03:57;;;;;;;9.77;6.90;;;;;;;-145.68;85.68;72758.31;10491395;28;20291;-75
2023/08/20 07:08:57;;;;;;;11.77;8.18;;;;;;;-145.68;76.04;72760.31;10453485;28;20184;-74
2023/08/20 07:13:57;;;;;;;14.65;8.27;;;;;;;-145.68;74.72;72670.38;10454745;28;20237;-75
2023/08/20 07:18:58;;;;;;;8.73;7.15;;;;;;;-145.68;69.25;72676.38;10493128;28;20292;-74
2023/08/20 07:23:58;;;;;;;7.20;6.15;;;;;;;-145.68;61.01;72406.59;10476798;28;20187;-73
2023/08/20 07:29:01;;;;;;;11.40;6.72;;;;;;;-145.68;54.44;72240.75;10485641;28;20191;-74
2023/08/20 07:34:03;;;;;;;9.07;6.13;;;;;;;-145.68;55.81;72428.59;10492125;28;20195;-74
2023/08/20 07:39:03;;;;;;;9.43;6.07;;;;;;;-145.68;58.24;72520.50;10490806;28;20280;-74
2023/08/20 07:44:04;;;;;;;8.00;5.00;;;;;;;-145.68;55.85;72464.56;10493728;28;20724;-74
2023/08/20 07:49:04;;;;;;;9.32;5.40;;;;;;;-145.68;54.25;72344.66;10488888;28;20683;-74
2023/08/20 07:54:05;;;;;;;6.65;5.47;;;;;;;-145.68;52.49;72240.75;10491237;28;20196;-74
2023/08/20 07:59:05;;;;;;;5.28;4.75;;;;;;;-145.68;48.29;72036.94;10492767;28;20215;-74
2023/08/20 08:04:05;;;;;;;9.68;4.90;;;;;;;-145.68;47.34;71985.00;10491916;28;20191;-74
2023/08/20 08:09:26;;;;;;;8.38;4.88;;;;;;;-145.68;48.72;72104.88;10493522;28;20221;-74
2023/08/20 08:14:27;;;;;;;6.57;4.68;;;;;;;-145.68;45.57;71937.03;10488061;28;20191;-74
2023/08/20 08:19:27;;;;;;;5.25;4.68;;;;;;;-145.68;45.48;71931.06;10492007;28;20226;-75
2023/08/20 08:24:27;;;;;;;6.70;4.45;;;;;;;-145.68;44.04;71879.09;10489217;28;20194;-74
2023/08/20 08:29:28;;;;;;;6.93;4.87;;;;;;;-145.68;42.46;71797.19;10491227;28;20183;-74
2023/08/20 08:34:28;;;;;;;5.75;3.80;;;;;;;-145.68;40.18;71559.44;10491301;28;20498;-74
2023/08/20 08:39:29;;;;;;;5.78;3.70;;;;;;;-145.68;40.99;71727.25;10485324;28;20223;-74
2023/08/20 08:44:33;;;;;;;4.27;3.80;;;;;;;-145.68;42.40;71799.19;10492980;28;20651;-75
2023/08/20 08:49:34;;;;;;;7.38;4.30;;;;;;;-145.68;43.17;71867.13;10483387;28;20486;-74
2023/08/20 08:54:35;;;;;;;8.60;4.72;;;;;;;-145.68;45.22;72002.97;10447114;28;20257;-75
2023/08/20 08:59:35;;;;;;;4.82;4.00;;;;;;;-145.68;46.11;72084.91;10429437;28;20674;-74
2023/08/20 09:04:40;;;;;;;7.88;4.50;;;;;;;-145.68;47.46;72098.88;10476842;28;20199;-74
2023/08/20 09:09:45;;;;;;;11.05;3.88;;;;;;;-145.68;44.57;71957.03;10490558;28;20194;-75
2023/08/20 09:14:47;;;;;;;5.05;3.70;;;;;;;-145.68;42.78;71865.13;10485904;28;20241;-73
2023/08/20 09:19:48;;;;;;;4.70;4.22;;;;;;;-145.68;43.83;71885.09;10472922;28;20223;-74
2023/08/20 09:24:55;;;;;;;9.90;4.07;;;;;;;-145.68;42.18;71683.31;10491919;28;20195;-74
2023/08/20 09:29:59;;;;;;;8.82;4.20;;;;;;;-145.68;41.34;71659.34;10499469;28;20198;-75
2023/08/20 09:34:59;;;;;;;6.30;4.30;;;;;;;-145.68;43.53;71851.13;10496743;28;20350;-75
2023/08/20 09:40:00;;;;;;;10.00;4.40;;;;;;;-145.68;43.38;71809.16;10485290;28;20233;-75
2023/08/20 09:45:04;;;;;;;5.85;4.10;;;;;;;-145.68;41.97;71721.25;10499148;28;20499;-75
2023/08/20 09:50:06;;;;;;;8.05;4.35;;;;;;;-145.68;43.17;71819.16;10497946;28;20635;-75
2023/08/20 09:55:13;;;;;;;7.43;4.55;;;;;;;-145.68;40.97;71731.25;10479790;28;20198;-75
2023/08/20 10:00:14;;;;;;;9.88;4.80;;;;;;;-145.68;43.38;71887.09;10480421;28;20227;-74
2023/08/20 10:05:15;;;;;;;6.43;4.60;;;;;;;-145.68;47.03;72098.88;10487063;28;20230;-73
2023/08/20 10:10:16;;;;;;;8.38;6.07;;;;;;;-145.68;48.42;72082.91;10456300;28;20180;-73
2023/08/20 10:15:17;;;;;;;7.45;6.80;;;;;;;-145.68;52.87;72274.72;10456603;28;20184;-73
2023/08/20 10:20:18;;;;;;;9.35;7.60;;;;;;;-145.68;54.84;72314.69;10451116;28;20721;-74
2023/08/20 10:25:26;;;;;;;8.93;7.75;;;;;;;-145.68;55.44;72324.69;10497750;28;20183;-74
2023/08/20 10:30:26;;;;;;;9.77;7.00;;;;;;;-145.68;52.24;72140.84;10497345;28;20183;-74
2023/08/20 10:35:28;;;;;;;7.45;6.22;;;;;;;-145.68;47.76;71877.09;10496761;28;20568;-74
2023/08/20 10:40:48;;;;;;;8.57;7.18;;;;;;;-145.68;46.14;71853.13;10496449;28;20195;-75
2023/08/20 10:46:22;;;;;;;8.55;6.03;;;;;;;-145.68;44.88;71769.22;10496729;28;20235;-74
2023/08/20 10:51:27;;;;;;;9.98;6.90;;;;;;;-145.68;43.23;71787.19;10496805;28;20214;-74
2023/08/20 10:56:41;;;;;;;9.98;5.80;;;;;;;-145.68;46.21;71895.09;10478231;28;20231;-73
2023/08/20 11:01:49;;;;;;;8.48;5.93;;;;;;;-145.68;43.69;71715.28;10496236;28;20183;-75
2023/08/20 11:06:54;;;;;;;11.32;5.55;;;;;;;-145.68;44.02;71755.22;10496233;28;20191;-76
2023/08/20 11:11:54;;;;;;;9.60;5.85;;;;;;;-145.68;43.49;71689.31;10477849;28;20289;-76
2023/08/20 11:16:55;;;;;;;9.57;6.03;;;;;;;-145.68;42.63;71637.34;10495207;28;20228;-75
2023/08/20 11:21:55;;;;;;;8.10;5.50;;;;;;;-145.68;41.35;71625.38;10477637;28;20631;-75
2023/08/20 11:26:56;;;;;;;16.97;6.27;;;;;;;-145.68;40.37;71599.41;10494839;28;20187;-75
2023/08/20 11:31:57;;;;;;;12.00;6.20;;;;;;;-145.68;40.52;71517.47;10495292;28;20439;-76
2023/08/20 11:36:57;;;;;;;10.18;5.50;;;;;;;-145.68;40.14;71461.53;10494702;28;20572;-75
2023/08/20 11:41:59;;;;;;;9.95;5.90;;;;;;;-145.68;40.59;71507.50;10495007;28;20197;-75
2023/08/20 11:46:59;;;;;;;7.60;5.28;;;;;;;-145.68;37.78;71283.75;10455764;28;20258;-76
2023/08/20 11:51:59;;;;;;;8.27;6.10;;;;;;;-145.68;40.58;71601.41;10493331;28;20564;-75
2023/08/20 11:57:04;;;;;;;6.28;5.68;;;;;;;-145.68;37.69;71311.72;10493729;28;20476;-76
2023/08/20 12:02:04;;;;;;;6.80;5.35;;;;;;;-145.68;37.32;71315.72;10493261;28;20579;-76
2023/08/20 12:07:09;;;;;;;12.93;6.27;;;;;;;-145.68;37.58;71409.59;10493518;28;20182;-76
2023/08/20 12:12:09;;;;;;;7.15;5.20;;;;;;;-145.68;38.17;71405.59;10493329;28;20448;-76
2023/08/20 12:17:10;;;;;;;7.47;5.30;;;;;;;-145.68;38.52;71347.66;10493105;28;20234;-77
2023/08/20 12:22:10;;;;;;;9.47;5.60;;;;;;;-145.68;39.33;71495.50;10493217;28;20198;-77
2023/08/20 12:27:10;;;;;;;7.45;5.40;;;;;;;-145.68;36.51;71173.88;10493085;28;20887;-76
2023/08/20 12:32:11;;;;;;;7.87;5.43;;;;;;;-145.68;35.99;71179.88;10474763;28;20274;-77
2023/08/20 12:37:11;;;;;;;9.02;5.50;;;;;;;-145.68;35.58;71109.94;10490977;28;20567;-76
2023/08/20 12:42:12;;;;;;;7.50;5.50;;;;;;;-145.68;34.50;71006.06;10492679;28;20186;-77
2023/08/20 12:47:12;;;;;;;7.32;4.80;;;;;;;-145.68;34.56;71004.09;10491940;28;20465;-77
2023/08/20 12:52:12;;;;;;;6.63;5.27;;;;;;;-145.68;33.17;70892.22;10492204;28;20213;-77
2023/08/20 12:57:13;;;;;;;6.10;5.50;;;;;;;-145.68;34.91;71117.94;10473784;28;20484;-77
2023/08/20 13:02:13;;;;;;;6.40;4.83;;;;;;;-145.68;34.83;71014.06;10492058;28;20433;-77
2023/08/20 13:07:14;;;;;;;7.70;5.10;;;;;;;-145.68;33.94;70938.16;10491762;28;20444;-77
2023/08/20 13:12:15;;;;;;;5.72;4.43;;;;;;;-145.68;33.33;70930.19;10491918;28;20856;-77
2023/08/20 13:17:15;;;;;;;5.20;4.40;;;;;;;-145.68;34.08;71002.09;10491047;28;20222;-77
2023/08/20 13:22:16;;;;;;;4.80;4.40;;;;;;;-145.68;33.08;70876.25;10491599;28;20179;-76
2023/08/20 13:27:16;;;;;;;6.18;4.32;;;;;;;-145.68;32.61;70902.22;10490684;28;20210;-76
2023/08/20 13:32:17;;;;;;;8.63;4.17;;;;;;;-145.68;34.27;70974.13;10491502;28;20198;-78
2023/08/20 13:37:17;;;;;;;9.40;5.47;;;;;;;-145.68;34.47;71113.94;10490647;28;20459;-76
2023/08/20 13:42:18;;;;;;;8.40;4.78;;;;;;;-145.68;36.00;71297.72;10490978;28;20441;-75
2023/08/20 13:47:18;;;;;;;7.23;4.20;;;;;;;-145.68;37.20;71331.69;10487212;28;20230;-75
2023/08/20 13:52:18;;;;;;;6.73;4.50;;;;;;;-145.68;35.95;71225.81;10490547;28;20960;-76
2023/08/20 13:57:19;;;;;;;6.87;4.53;;;;;;;-145.68;35.31;71211.84;10490496;28;20421;-75
2023/08/20 14:02:19;;;;;;;6.25;4.20;;;;;;;-145.68;33.87;71064.00;10490854;28;20429;-76
2023/08/20 14:07:20;;;;;;;5.72;4.65;;;;;;;-145.68;33.17;71022.06;10490198;28;20630;-76
2023/08/20 14:12:20;;;;;;;8.10;4.30;;;;;;;-145.68;32.03;70774.38;10492945;28;20201;-76
2023/08/20 14:17:21;;;;;;;6.23;4.33;;;;;;;-145.68;32.88;70866.25;10497629;28;20218;-77
2023/08/20 14:22:21;;;;;;;6.00;4.20;;;;;;;-145.68;31.55;70664.50;10497779;28;20437;-77
2023/08/20 14:27:22;;;;;;;4.75;4.05;;;;;;;-145.68;32.06;70762.38;10497599;28;20475;-77
2023/08/20 14:32:22;;;;;;;8.00;4.25;;;;;;;-145.68;30.90;70708.47;10479466;28;20194;-76
2023/08/20 14:37:23;;;;;;;5.82;3.83;;;;;;;-145.68;30.75;70638.53;10497001;28;20190;-76
2023/08/20 14:42:23;;;;;;;6.78;4.88;;;;;;;-145.68;31.44;70836.28;10496974;28;20187;-77
2023/08/20 14:47:24;;;;;;;6.15;4.07;;;;;;;-145.68;33.64;71044.03;10495969;28;20532;-76
2023/08/20 14:52:24;;;;;;;7.50;4.40;;;;;;;-145.68;34.72;71241.78;10496666;28;20204;-76
2023/08/20 14:57:25;;;;;;;4.47;3.72;;;;;;;-145.68;37.43;71717.28;10496100;28;20931;-75
2023/08/20 15:02:25;;;;;;;4.88;3.53;;;;;;;-145.68;35.94;71557.44;10496653;28;20198;-75
2023/08/20 15:07:25;;;;;;;4.70;3.47;;;;;;;-145.68;39.04;71851.13;10495441;28;20272;-75
2023/08/20 15:12:26;;;;;;;7.73;3.83;;;;;;;-145.68;39.97;71825.16;10496426;28;20183;-74
2023/08/20 15:17:26;;;;;;;5.35;3.78;;;;;;;-145.68;38.26;71683.31;10495542;28;20441;-74
2023/08/20 15:22:27;;;;;;;9.15;4.13;;;;;;;-145.68;37.76;71653.34;10495434;28;20553;-76
2023/08/20 15:27:27;;;;;;;9.80;4.28;;;;;;;-145.68;42.04;72034.94;10495450;28;20223;-75
2023/08/20 15:32:28;;;;;;;8.80;3.53;;;;;;;-145.68;49.25;72574.47;10495297;28;20192;-73
2023/08/20 15:37:29;;;;;;;8.18;3.75;;;;;;;-145.68;49.54;72452.56;10476701;28;20219;-74
2023/08/20 15:42:29;;;;;;;5.82;3.40;;;;;;;-145.68;49.55;72508.50;10494732;28;20191;-73
2023/08/20 15:47:30;;;;;;;6.93;2.67;;;;;;;-145.68;50.79;72586.44;10490785;28;20234;-74
2023/08/20 15:52:30;;;;;;;8.00;3.00;;;;;;;-145.68;48.55;72380.63;10494262;28;20193;-75
2023/08/20 15:57:30;;;;;;;5.10;3.08;;;;;;;-145.68;50.51;72566.47;10493700;28;20199;-75
2023/08/20 16:02:31;;;;;;;4.70;2.88;;;;;;;-145.68;51.52;72590.44;10493946;28;20629;-75
2023/08/20 16:07:31;;;;;;;4.97;3.15;;;;;;;-145.68;51.71;72576.47;10493108;28;20303;-75
2023/08/20 16:12:32;;;;;;;3.63;2.85;;;;;;;-145.68;53.15;72624.41;10493632;28;20191;-75
2023/08/20 16:17:32;;;;;;;5.30;2.75;;;;;;;-145.68;54.99;72696.34;10493026;28;20180;-75
2023/08/20 16:22:32;;;;;;;8.50;3.60;;;;;;;-145.68;58.91;72792.28;10493011;28;20187;-75
2023/08/20 16:27:33;;;;;;;4.93;3.55;;;;;;;-145.68;60.76;72798.28;10492201;28;20255;-76
2023/08/20 16:32:33;;;;;;;4.43;3.20;;;;;;;-145.68;59.11;72776.28;10492788;28;20187;-75
2023/08/20 16:37:34;;;;;;;7.75;3.38;;;;;;;-145.68;59.39;72826.25;10491508;28;20178;-75
2023/08/20 16:42:35;;;;;;;5.05;3.17;;;;;;;-145.68;58.30;72764.31;10492090;28;20197;-75
2023/08/20 16:47:35;;;;;;;6.38;3.42;;;;;;;-145.68;59.02;72770.31;10491233;28;20230;-75
2023/08/20 16:52:36;;;;;;;3.38;3.08;;;;;;;-145.68;59.97;72788.28;10491478;28;20191;-75
2023/08/20 16:57:36;;;;;;;6.13;3.25;;;;;;;-145.68;62.15;72810.28;10490379;28;20312;-75
2023/08/20 17:02:37;;;;;;;4.93;3.50;;;;;;;-145.68;66.38;72884.22;10491549;28;20202;-75
2023/08/20 17:07:39;;;;;;;5.65;3.53;;;;;;;-145.68;73.92;72968.16;10492085;28;20223;-75
2023/08/20 17:12:39;;;;;;;6.15;3.78;;;;;;;-145.68;73.49;72906.19;10491748;28;20195;-75
2023/08/20 17:17:39;;;;;;;6.60;4.20;;;;;;;-145.68;71.38;72868.22;10489971;28;20237;-76
2023/08/20 17:22:40;;;;;;;6.68;3.95;;;;;;;-145.68;72.84;72834.25;10472077;28;20674;-76
2023/08/20 17:27:41;;;;;;;5.60;4.10;;;;;;;-145.68;73.31;72838.25;10490090;28;20249;-75
2023/08/20 17:32:41;;;;;;;5.75;4.00;;;;;;;-145.68;72.97;72832.25;10488554;28;20179;-75
2023/08/20 17:37:42;;;;;;;6.72;3.88;;;;;;;-145.68;70.78;72798.28;10488439;28;20187;-75
2023/08/20 17:42:42;;;;;;;5.80;4.20;;;;;;;-145.68;70.41;72750.31;10488593;28;20190;-75
2023/08/20 17:47:42;;;;;;;4.93;3.90;;;;;;;-145.68;74.15;72878.22;10489315;28;20273;-75
2023/08/20 17:52:43;;;;;;;6.18;4.00;;;;;;;-145.68;79.44;72912.19;10516787;28;20186;-75
2023/08/20 17:57:43;;;;;;;4.47;3.80;;;;;;;-145.68;83.39;72926.19;10534028;28;20282;-75
2023/08/20 18:02:44;;;;;;;9.07;4.75;;;;;;;-145.68;84.41;72934.19;10497568;28;20187;-75
2023/08/20 18:07:45;;;;;;;7.93;5.22;;;;;;;-145.68;86.02;72940.16;10496930;28;20207;-75
2023/08/20 18:12:45;;;;;;;6.63;4.93;;;;;;;-145.68;88.78;72948.16;10479139;28;20245;-75
2023/08/20 18:17:46;;;;;;;8.05;5.60;;;;;;;-145.68;93.53;72972.16;10496826;28;20594;-74
2023/08/20 18:22:46;;;;;;;9.00;5.65;;;;;;;-145.68;100.00;72998.13;10496419;28;20199;-76
2023/08/20 18:27:47;;;;;;;8.98;5.85;;;;;;;-145.68;100.00;73010.13;10478242;28;20231;-74
2023/08/20 18:32:48;;;;;;;6.53;5.53;;;;;;;-145.68;100.00;73018.13;10495838;28;20214;-75
2023/08/20 18:37:49;;;;;;;9.02;6.05;;;;;;;-145.68;100.00;73042.09;10495472;28;20647;-74
2023/08/20 18:42:49;;;;;;;12.65;6.53;;;;;;;-145.68;100.00;73084.06;10477744;28;20245;-75
2023/08/20 18:47:50;;;;;;;8.40;5.90;;;;;;;-145.68;100.00;73092.06;10460481;28;20593;-75
2023/08/20 18:52:50;;;;;;;8.32;6.32;;;;;;;-145.68;100.00;73100.06;10461182;28;20202;-75
2023/08/20 18:57:50;;;;;;;11.18;6.60;;;;;;;-145.68;100.00;73084.06;10476710;28;20192;-74
2023/08/20 19:02:51;;;;;;;7.93;6.68;;;;;;;-145.68;100.00;73108.06;10495095;28;20193;-75
2023/08/20 19:07:52;;;;;;;7.65;6.50;;;;;;;-145.68;100.00;73120.03;10459217;28;20218;-75
2023/08/20 19:12:53;;;;;;;8.85;6.90;;;;;;;-145.68;100.00;73148.03;10476744;28;20222;-74
2023/08/20 19:17:53;;;;;;;8.25;7.45;;;;;;;-145.68;100.00;73144.03;10494072;28;20197;-74
2023/08/20 19:22:53;;;;;;;11.98;7.43;;;;;;;-145.68;100.00;73136.03;10476763;28;20194;-76
2023/08/20 19:27:54;;;;;;;12.07;7.57;;;;;;;-145.68;100.00;73134.03;10476025;28;20238;-74
2023/08/20 19:32:54;;;;;;;13.07;7.50;;;;;;;-145.68;100.00;73136.03;10494226;28;20205;-75
2023/08/20 19:37:55;;;;;;;11.25;8.13;;;;;;;-145.68;100.00;73168.00;10493253;28;20215;-75
2023/08/20 19:42:55;;;;;;;11.13;8.05;;;;;;;-145.68;100.00;73166.00;10493346;28;20797;-75
2023/08/20 19:47:55;;;;;;;11.52;8.80;;;;;;;-145.68;100.00;73180.00;10492778;28;20295;-75
2023/08/20 19:52:56;;;;;;;10.60;8.40;;;;;;;-145.68;100.00;73186.00;10492881;28;20198;-74
2023/08/20 19:57:57;;;;;;;10.60;8.05;;;;;;;-145.68;100.00;73184.00;10492694;28;20572;-74
2023/08/20 20:02:57;;;;;;;11.18;8.23;;;;;;;-145.68;100.00;73164.00;10492257;28;20278;-75
2023/08/20 20:07:59;;;;;;;14.38;7.57;;;;;;;-145.68;100.00;73186.00;10491438;28;20183;-75
2023/08/20 20:12:59;;;;;;;11.70;7.65;;;;;;;-145.68;100.00;73182.00;10492575;28;20191;-74
2023/08/20 20:17:59;;;;;;;8.27;7.22;;;;;;;-145.68;100.00;73184.00;10467056;28;20223;-75
2023/08/20 20:23:00;;;;;;;9.13;7.90;;;;;;;-145.68;100.00;73203.97;10451714;28;20198;-75
2023/08/20 20:28:00;;;;;;;8.55;7.68;;;;;;;-145.68;100.00;73219.97;10450884;28;20655;-74
2023/08/20 20:33:00;;;;;;;10.05;8.40;;;;;;;-145.68;100.00;73217.97;10451541;28;20682;-75
2023/08/20 20:38:01;;;;;;;10.00;7.45;;;;;;;-145.68;100.00;73223.97;10450369;28;20222;-75
2023/08/20 20:43:01;;;;;;;10.45;7.30;;;;;;;-145.68;100.00;73241.97;10451103;28;20191;-74
2023/08/20 20:48:03;;;;;;;16.00;8.90;;;;;;;-145.68;100.00;73257.94;10450199;28;20266;-75
2023/08/20 20:53:04;;;;;;;12.45;8.23;;;;;;;-145.68;100.00;73249.94;10450614;28;20237;-74
2023/08/20 20:58:04;;;;;;;10.38;7.85;;;;;;;-145.68;100.00;73271.94;10450100;28;20220;-75
2023/08/20 21:03:04;;;;;;;11.18;8.30;;;;;;;-145.68;100.00;73279.94;10450329;28;20199;-75
2023/08/20 21:08:05;;;;;;;11.15;7.90;;;;;;;-145.68;100.00;73279.94;10449505;28;20287;-75
2023/08/20 21:13:09;;;;;;;13.10;8.35;;;;;;;-145.68;100.00;73297.91;10449870;28;20241;-76
2023/08/20 21:18:10;;;;;;;9.43;7.43;;;;;;;-145.68;100.00;73299.91;10432527;28;20227;-75
2023/08/20 21:23:10;;;;;;;10.82;7.47;;;;;;;-145.68;100.00;73315.91;10459590;28;20191;-74
2023/08/20 21:28:11;;;;;;;11.07;7.75;;;;;;;-145.68;100.00;73305.91;10462933;28;20184;-75
2023/08/20 21:33:11;;;;;;;10.32;7.10;;;;;;;-145.68;100.00;73301.91;10463201;28;20578;-75
2023/08/20 21:38:11;;;;;;;12.18;7.72;;;;;;;-145.68;100.00;73315.91;10444951;28;20230;-75
2023/08/20 21:43:12;;;;;;;10.35;7.72;;;;;;;-145.68;100.00;73311.91;10463432;28;20188;-75
2023/08/20 21:48:12;;;;;;;9.98;7.35;;;;;;;-145.68;100.00;73317.91;10462297;28;20239;-74
2023/08/20 21:53:13;;;;;;;14.30;7.88;;;;;;;-145.68;100.00;73311.91;10463090;28;20191;-74
2023/08/20 21:58:13;;;;;;;8.48;7.47;;;;;;;-145.68;100.00;73319.91;10444523;28;20223;-75
2023/08/20 22:03:13;;;;;;;9.07;7.97;;;;;;;-145.68;100.00;73335.91;10462814;28;20192;-73
2023/08/20 22:08:16;;;;;;;13.13;7.57;;;;;;;-145.68;100.00;73337.91;10444734;28;20283;-75
2023/08/20 22:13:17;;;;;;;11.57;7.20;;;;;;;-145.68;100.00;73329.91;10462293;28;20636;-75
2023/08/20 22:18:17;;;;;;;9.40;8.40;;;;;;;-145.68;100.00;73323.91;10462715;28;20227;-74
2023/08/20 22:23:18;;;;;;;11.43;8.18;;;;;;;-145.68;100.00;73359.88;10462571;28;20270;-75
2023/08/20 22:28:18;;;;;;;9.25;8.00;;;;;;;-145.68;100.00;73391.84;10462657;28;20191;-75
2023/08/20 22:33:18;;;;;;;12.10;8.98;;;;;;;-145.68;100.00;73415.84;10458095;28;20237;-76
2023/08/20 22:38:19;;;;;;;10.95;8.45;;;;;;;-145.68;100.00;73419.84;10455479;28;20212;-75